createdAt,value
2018-12-18T16:58:53.679Z,10.60
2018-12-18T17:01:34.945Z,7.13
2018-12-18T17:04:04.121Z,7.12
2018-12-18T17:06:33.055Z,9.23
2018-12-18T17:09:02.930Z,9.00
2018-12-18T17:11:46.075Z,7.20
2018-12-18T17:14:15.072Z,8.95
2018-12-18T17:16:44.072Z,8.50
2018-12-18T17:19:13.603Z,8.50
2018-12-18T17:21:42.599Z,4.97
2018-12-18T17:24:11.582Z,6.77
2018-12-18T17:26:40.650Z,7.60
2018-12-18T17:29:09.570Z,5.23
2018-12-18T17:31:38.558Z,8.57
2018-12-18T17:34:07.564Z,8.83
2018-12-18T17:36:36.863Z,7.20
2018-12-18T17:39:07.774Z,6.73
2018-12-18T17:41:36.747Z,7.83
2018-12-18T17:44:05.758Z,6.57
2018-12-18T17:46:35.060Z,7.63
2018-12-18T17:49:05.803Z,7.20
2018-12-18T17:51:34.794Z,5.90
2018-12-18T17:54:04.794Z,6.20
2018-12-18T17:56:34.628Z,8.17
2018-12-18T17:59:04.463Z,6.50
2018-12-18T18:01:33.362Z,6.20
2018-12-18T18:04:02.532Z,8.40
2018-12-18T18:06:31.597Z,7.77
2018-12-18T18:09:04.083Z,7.70
2018-12-18T18:11:35.188Z,6.27
2018-12-18T18:14:05.187Z,7.30
2018-12-18T18:16:33.927Z,9.90
2018-12-18T18:19:03.073Z,6.60
2018-12-18T18:21:32.015Z,7.80
2018-12-18T18:24:00.989Z,7.20
2018-12-18T18:26:29.968Z,9.87
2018-12-18T18:28:59.144Z,12.23
2018-12-18T18:31:28.351Z,12.40
2018-12-18T18:33:57.183Z,12.60
2018-12-18T18:36:26.187Z,14.17
2018-12-18T18:38:55.172Z,20.33
2018-12-18T18:41:24.573Z,8.57
2018-12-18T18:43:53.847Z,11.67
2018-12-18T18:46:23.691Z,11.13
2018-12-18T18:48:52.683Z,8.77
2018-12-18T18:51:21.678Z,10.88
2018-12-18T18:53:50.730Z,12.13
2018-12-18T18:56:20.132Z,7.42
2018-12-18T18:58:49.119Z,9.23
2018-12-18T19:01:18.255Z,10.53
2018-12-18T19:03:47.270Z,7.77
2018-12-18T19:06:16.231Z,8.03
2018-12-18T19:08:45.232Z,8.33
2018-12-18T19:11:14.290Z,9.28
2018-12-18T19:13:43.333Z,9.03
2018-12-18T19:16:12.522Z,7.03
2018-12-18T19:18:41.518Z,11.00
2018-12-18T19:21:11.896Z,8.70
2018-12-18T19:23:41.327Z,8.60
2018-12-18T19:26:10.639Z,9.43
2018-12-18T19:28:39.626Z,9.70
2018-12-18T19:31:08.779Z,8.13
2018-12-18T19:33:38.359Z,10.97
2018-12-18T19:36:07.223Z,8.73
2018-12-18T19:38:36.215Z,12.77
2018-12-18T19:41:05.212Z,9.83
2018-12-18T19:43:34.299Z,10.90
2018-12-18T19:46:03.336Z,15.80
2018-12-18T19:48:32.463Z,15.83
2018-12-18T19:51:01.482Z,16.25
2018-12-18T19:53:30.478Z,12.17
2018-12-18T19:56:00.539Z,13.13
2018-12-18T19:58:29.271Z,13.20
2018-12-18T20:00:58.703Z,12.37
2018-12-18T20:03:28.300Z,11.97
2018-12-18T20:05:57.276Z,13.80
2018-12-18T20:08:26.267Z,11.43
2018-12-18T20:10:55.646Z,14.10
2018-12-18T20:13:24.558Z,11.53
2018-12-18T20:15:53.560Z,12.10
2018-12-18T20:18:22.622Z,14.55
2018-12-18T20:20:51.907Z,11.63
2018-12-18T20:23:21.450Z,10.63
2018-12-18T20:25:50.610Z,10.37
2018-12-18T20:28:19.499Z,10.60
2018-12-18T20:30:48.424Z,12.63
2018-12-18T20:33:17.425Z,13.00
2018-12-18T20:35:46.491Z,11.50
2018-12-18T20:38:16.971Z,11.70
2018-12-18T20:40:46.244Z,12.53
2018-12-18T20:43:15.232Z,12.97
2018-12-18T20:45:44.220Z,15.67
2018-12-18T20:48:13.219Z,11.83
2018-12-18T20:50:48.704Z,16.90
2018-12-18T20:53:18.647Z,10.98
2018-12-18T20:55:47.870Z,11.90
2018-12-18T20:58:16.690Z,11.78
2018-12-18T21:00:45.875Z,12.27
2018-12-18T21:03:15.835Z,12.00
2018-12-18T21:05:44.910Z,13.70
2018-12-18T21:08:13.890Z,11.18
2018-12-18T21:10:42.835Z,11.93
2018-12-18T21:13:17.111Z,12.98
2018-12-18T21:15:46.338Z,11.00
2018-12-18T21:18:15.259Z,12.70
2018-12-18T21:20:44.237Z,13.00
2018-12-18T21:23:13.330Z,12.30
2018-12-18T21:25:42.233Z,12.27
2018-12-18T21:28:11.287Z,13.33
2018-12-18T21:30:41.211Z,9.90
2018-12-18T21:33:10.134Z,9.53
2018-12-18T21:35:39.570Z,10.47
2018-12-18T21:38:08.434Z,10.47
2018-12-18T21:40:38.939Z,9.93
2018-12-18T21:43:08.251Z,9.57
2018-12-18T21:45:37.236Z,10.20
2018-12-18T21:48:06.524Z,9.30
2018-12-18T21:50:35.534Z,10.13
2018-12-18T21:53:05.128Z,9.30
2018-12-18T21:55:34.419Z,9.63
2018-12-18T21:58:03.498Z,8.70
2018-12-18T22:00:32.406Z,8.77
2018-12-18T22:03:01.419Z,12.67
2018-12-18T22:05:30.398Z,9.50
2018-12-18T22:07:59.479Z,9.23
2018-12-18T22:10:28.536Z,9.67
2018-12-18T22:12:57.379Z,8.63
2018-12-18T22:15:26.462Z,9.53
2018-12-18T22:17:55.367Z,8.70
2018-12-18T22:20:24.359Z,8.43
2018-12-18T22:22:53.358Z,8.57
2018-12-18T22:25:23.650Z,10.55
2018-12-18T22:27:52.680Z,9.03
2018-12-18T22:30:22.275Z,9.03
2018-12-18T22:32:51.159Z,9.13
2018-12-18T22:35:20.155Z,10.47
2018-12-18T22:37:49.152Z,8.23
2018-12-18T22:40:18.144Z,9.20
2018-12-18T22:42:47.249Z,8.63
2018-12-18T22:45:16.122Z,8.23
2018-12-18T22:47:45.195Z,7.80
2018-12-18T22:50:14.238Z,9.50
2018-12-18T22:52:43.122Z,13.68
2018-12-18T22:55:12.175Z,7.83
2018-12-18T22:57:41.160Z,7.33
2018-12-18T23:00:13.011Z,7.53
2018-12-18T23:02:44.247Z,8.73
2018-12-18T23:05:13.449Z,6.97
2018-12-18T23:07:42.577Z,7.17
2018-12-18T23:10:11.693Z,8.68
2018-12-18T23:12:40.576Z,6.83
2018-12-18T23:15:09.691Z,7.10
2018-12-18T23:17:38.839Z,7.27
2018-12-18T23:20:07.999Z,8.33
2018-12-18T23:22:36.833Z,7.77
2018-12-18T23:25:06.071Z,6.90
2018-12-18T23:27:35.143Z,8.73
2018-12-18T23:30:05.764Z,7.37
2018-12-18T23:32:34.647Z,6.97
2018-12-18T23:35:03.794Z,6.70
2018-12-18T23:37:32.722Z,8.03
2018-12-18T23:40:01.643Z,7.63
2018-12-18T23:42:31.632Z,6.50
2018-12-18T23:45:00.527Z,7.83
2018-12-18T23:47:29.606Z,6.43
2018-12-18T23:49:58.598Z,6.33
2018-12-18T23:52:29.336Z,6.87
2018-12-18T23:54:58.467Z,6.33
2018-12-18T23:57:27.435Z,6.60
2018-12-18T23:59:56.328Z,8.13
